sensor_id;sensor_type;location;lat;lon;timestamp;temperature;humidity
34572;DHT22;20808;48.974;8.452;2022-08-30T00:02:11;18.20;1.70
34572;DHT22;20808;48.974;8.452;2022-08-30T00:04:38;18.10;18.80
34572;DHT22;20808;48.974;8.452;2022-08-30T00:07:06;18.00;6.70
34572;DHT22;20808;48.974;8.452;2022-08-30T00:09:33;17.90;48.50
34572;DHT22;20808;48.974;8.452;2022-08-30T00:12:00;17.70;99.90
34572;DHT22;20808;48.974;8.452;2022-08-30T00:14:29;17.50;99.90
34572;DHT22;20808;48.974;8.452;2022-08-30T00:16:55;17.40;1.00
34572;DHT22;20808;48.974;8.452;2022-08-30T00:19:22;17.20;1.00
34572;DHT22;20808;48.974;8.452;2022-08-30T00:21:49;17.20;1.00
34572;DHT22;20808;48.974;8.452;2022-08-30T00:24:17;17.10;99.90
34572;DHT22;20808;48.974;8.452;2022-08-30T00:26:44;17.10;99.90
34572;DHT22;20808;48.974;8.452;2022-08-30T00:29:11;17.00;99.90
34572;DHT22;20808;48.974;8.452;2022-08-30T00:31:38;17.00;1.00
34572;DHT22;20808;48.974;8.452;2022-08-30T00:34:05;17.00;1.00
34572;DHT22;20808;48.974;8.452;2022-08-30T00:36:32;17.00;1.00
34572;DHT22;20808;48.974;8.452;2022-08-30T00:38:59;17.10;1.00
34572;DHT22;20808;48.974;8.452;2022-08-30T00:41:27;17.10;99.90
34572;DHT22;20808;48.974;8.452;2022-08-30T00:43:54;17.10;99.90
34572;DHT22;20808;48.974;8.452;2022-08-30T00:46:21;17.00;99.90
34572;DHT22;20808;48.974;8.452;2022-08-30T00:48:49;17.00;1.00
34572;DHT22;20808;48.974;8.452;2022-08-30T00:51:18;16.90;99.90
34572;DHT22;20808;48.974;8.452;2022-08-30T00:53:49;16.90;99.90
34572;DHT22;20808;48.974;8.452;2022-08-30T00:56:18;16.80;1.00
34572;DHT22;20808;48.974;8.452;2022-08-30T00:58:49;16.80;1.00
34572;DHT22;20808;48.974;8.452;2022-08-30T01:01:17;16.80;99.90
34572;DHT22;20808;48.974;8.452;2022-08-30T01:03:45;16.80;1.00
34572;DHT22;20808;48.974;8.452;2022-08-30T01:06:13;16.70;99.90
34572;DHT22;20808;48.974;8.452;2022-08-30T01:08:40;16.60;1.00
34572;DHT22;20808;48.974;8.452;2022-08-30T01:11:07;16.60;1.00
34572;DHT22;20808;48.974;8.452;2022-08-30T01:13:37;16.60;23.90
34572;DHT22;20808;48.974;8.452;2022-08-30T01:16:07;16.60;1.00
34572;DHT22;20808;48.974;8.452;2022-08-30T01:18:34;16.80;1.00
34572;DHT22;20808;48.974;8.452;2022-08-30T01:21:06;16.70;1.00
34572;DHT22;20808;48.974;8.452;2022-08-30T01:23:40;16.70;1.00
34572;DHT22;20808;48.974;8.452;2022-08-30T01:26:09;16.50;1.00
34572;DHT22;20808;48.974;8.452;2022-08-30T01:28:37;16.50;1.00
34572;DHT22;20808;48.974;8.452;2022-08-30T01:31:05;16.50;99.90
34572;DHT22;20808;48.974;8.452;2022-08-30T01:33:35;16.40;1.00
34572;DHT22;20808;48.974;8.452;2022-08-30T01:36:05;16.40;1.00
34572;DHT22;20808;48.974;8.452;2022-08-30T01:38:38;16.40;99.90
34572;DHT22;20808;48.974;8.452;2022-08-30T01:41:09;16.30;1.00
34572;DHT22;20808;48.974;8.452;2022-08-30T01:43:36;16.40;24.60
34572;DHT22;20808;48.974;8.452;2022-08-30T01:46:04;16.50;1.00
34572;DHT22;20808;48.974;8.452;2022-08-30T01:48:30;16.50;1.00
34572;DHT22;20808;48.974;8.452;2022-08-30T01:50:59;16.40;1.00
34572;DHT22;20808;48.974;8.452;2022-08-30T01:53:25;16.30;96.20
34572;DHT22;20808;48.974;8.452;2022-08-30T01:55:54;16.20;1.00
34572;DHT22;20808;48.974;8.452;2022-08-30T01:58:21;16.10;1.00
34572;DHT22;20808;48.974;8.452;2022-08-30T02:00:48;16.10;1.00
34572;DHT22;20808;48.974;8.452;2022-08-30T02:03:15;16.00;93.90
34572;DHT22;20808;48.974;8.452;2022-08-30T02:05:42;16.00;1.00
34572;DHT22;20808;48.974;8.452;2022-08-30T02:08:08;16.10;1.00
34572;DHT22;20808;48.974;8.452;2022-08-30T02:10:35;16.00;1.00
34572;DHT22;20808;48.974;8.452;2022-08-30T02:13:03;16.10;1.00
34572;DHT22;20808;48.974;8.452;2022-08-30T02:15:30;16.10;1.00
34572;DHT22;20808;48.974;8.452;2022-08-30T02:17:57;16.20;99.90
34572;DHT22;20808;48.974;8.452;2022-08-30T02:20:24;16.30;1.00
34572;DHT22;20808;48.974;8.452;2022-08-30T02:22:51;16.10;1.00
34572;DHT22;20808;48.974;8.452;2022-08-30T02:25:18;16.20;99.90
34572;DHT22;20808;48.974;8.452;2022-08-30T02:27:45;16.50;99.90
34572;DHT22;20808;48.974;8.452;2022-08-30T02:30:13;16.70;1.00
34572;DHT22;20808;48.974;8.452;2022-08-30T02:32:40;16.60;1.00
34572;DHT22;20808;48.974;8.452;2022-08-30T02:35:08;16.60;79.70
34572;DHT22;20808;48.974;8.452;2022-08-30T02:37:35;16.40;99.90
34572;DHT22;20808;48.974;8.452;2022-08-30T02:40:02;16.40;99.90
34572;DHT22;20808;48.974;8.452;2022-08-30T02:42:30;16.40;1.00
34572;DHT22;20808;48.974;8.452;2022-08-30T02:44:57;16.40;1.00
34572;DHT22;20808;48.974;8.452;2022-08-30T02:47:26;16.50;1.00
34572;DHT22;20808;48.974;8.452;2022-08-30T02:49:53;16.70;99.90
34572;DHT22;20808;48.974;8.452;2022-08-30T02:52:19;16.80;99.90
34572;DHT22;20808;48.974;8.452;2022-08-30T02:54:47;17.10;1.00
34572;DHT22;20808;48.974;8.452;2022-08-30T02:57:14;17.00;99.90
34572;DHT22;20808;48.974;8.452;2022-08-30T02:59:41;17.00;1.00
34572;DHT22;20808;48.974;8.452;2022-08-30T03:02:10;17.00;99.90
34572;DHT22;20808;48.974;8.452;2022-08-30T03:04:38;17.10;99.90
34572;DHT22;20808;48.974;8.452;2022-08-30T03:07:05;17.20;1.00
34572;DHT22;20808;48.974;8.452;2022-08-30T03:09:32;17.30;1.00
34572;DHT22;20808;48.974;8.452;2022-08-30T03:11:59;17.20;1.00
34572;DHT22;20808;48.974;8.452;2022-08-30T03:14:26;17.00;99.90
34572;DHT22;20808;48.974;8.452;2022-08-30T03:16:53;17.00;1.00
34572;DHT22;20808;48.974;8.452;2022-08-30T03:19:20;17.00;99.90
34572;DHT22;20808;48.974;8.452;2022-08-30T03:21:49;16.70;99.90
34572;DHT22;20808;48.974;8.452;2022-08-30T03:24:16;16.60;1.00
34572;DHT22;20808;48.974;8.452;2022-08-30T03:26:43;16.40;1.00
34572;DHT22;20808;48.974;8.452;2022-08-30T03:29:10;16.10;1.00
34572;DHT22;20808;48.974;8.452;2022-08-30T03:31:36;16.10;99.90
34572;DHT22;20808;48.974;8.452;2022-08-30T03:34:04;16.00;1.00
34572;DHT22;20808;48.974;8.452;2022-08-30T03:36:31;16.00;1.00
34572;DHT22;20808;48.974;8.452;2022-08-30T03:38:59;16.10;1.00
34572;DHT22;20808;48.974;8.452;2022-08-30T03:41:26;16.00;1.00
34572;DHT22;20808;48.974;8.452;2022-08-30T03:43:53;16.00;1.00
34572;DHT22;20808;48.974;8.452;2022-08-30T03:46:20;16.00;99.90
34572;DHT22;20808;48.974;8.452;2022-08-30T03:48:47;16.00;1.00
34572;DHT22;20808;48.974;8.452;2022-08-30T03:51:13;16.00;1.00
34572;DHT22;20808;48.974;8.452;2022-08-30T03:53:40;16.00;99.90
34572;DHT22;20808;48.974;8.452;2022-08-30T03:56:08;15.90;99.90
34572;DHT22;20808;48.974;8.452;2022-08-30T03:58:35;15.70;1.00
34572;DHT22;20808;48.974;8.452;2022-08-30T04:01:02;15.50;99.90
34572;DHT22;20808;48.974;8.452;2022-08-30T04:03:29;15.50;1.00
34572;DHT22;20808;48.974;8.452;2022-08-30T04:05:56;15.50;1.00
34572;DHT22;20808;48.974;8.452;2022-08-30T04:08:23;15.50;37.70
34572;DHT22;20808;48.974;8.452;2022-08-30T04:10:50;15.40;99.90
34572;DHT22;20808;48.974;8.452;2022-08-30T04:13:19;15.20;99.90
34572;DHT22;20808;48.974;8.452;2022-08-30T04:15:46;15.10;99.90
34572;DHT22;20808;48.974;8.452;2022-08-30T04:18:13;15.00;1.00
34572;DHT22;20808;48.974;8.452;2022-08-30T04:20:41;15.10;99.90
34572;DHT22;20808;48.974;8.452;2022-08-30T04:23:08;15.10;99.90
34572;DHT22;20808;48.974;8.452;2022-08-30T04:25:37;15.10;1.00
34572;DHT22;20808;48.974;8.452;2022-08-30T04:28:10;14.90;1.00
34572;DHT22;20808;48.974;8.452;2022-08-30T04:30:40;15.00;1.00
34572;DHT22;20808;48.974;8.452;2022-08-30T04:33:08;15.20;1.00
34572;DHT22;20808;48.974;8.452;2022-08-30T04:35:35;15.40;99.90
34572;DHT22;20808;48.974;8.452;2022-08-30T04:38:02;15.40;1.00
34572;DHT22;20808;48.974;8.452;2022-08-30T04:40:29;15.40;1.00
34572;DHT22;20808;48.974;8.452;2022-08-30T04:42:56;15.20;99.90
34572;DHT22;20808;48.974;8.452;2022-08-30T04:45:24;15.10;99.90
34572;DHT22;20808;48.974;8.452;2022-08-30T04:47:53;15.10;99.90
34572;DHT22;20808;48.974;8.452;2022-08-30T04:50:20;15.00;1.00
34572;DHT22;20808;48.974;8.452;2022-08-30T04:52:47;15.10;99.90
34572;DHT22;20808;48.974;8.452;2022-08-30T04:55:14;15.20;99.90
34572;DHT22;20808;48.974;8.452;2022-08-30T04:57:41;15.20;99.90
34572;DHT22;20808;48.974;8.452;2022-08-30T05:00:11;15.30;99.90
34572;DHT22;20808;48.974;8.452;2022-08-30T05:02:39;15.30;99.90
34572;DHT22;20808;48.974;8.452;2022-08-30T05:05:08;15.50;1.00
34572;DHT22;20808;48.974;8.452;2022-08-30T05:07:53;15.70;99.90
34572;DHT22;20808;48.974;8.452;2022-08-30T05:10:20;15.90;94.20
34572;DHT22;20808;48.974;8.452;2022-08-30T05:12:47;16.00;1.00
34572;DHT22;20808;48.974;8.452;2022-08-30T05:15:14;16.00;1.00
34572;DHT22;20808;48.974;8.452;2022-08-30T05:17:41;16.00;99.90
34572;DHT22;20808;48.974;8.452;2022-08-30T05:20:10;16.10;99.90
34572;DHT22;20808;48.974;8.452;2022-08-30T05:22:39;16.30;1.00
34572;DHT22;20808;48.974;8.452;2022-08-30T05:25:07;16.40;1.00
34572;DHT22;20808;48.974;8.452;2022-08-30T05:27:34;16.50;1.00
34572;DHT22;20808;48.974;8.452;2022-08-30T05:30:02;16.70;99.90
34572;DHT22;20808;48.974;8.452;2022-08-30T05:32:30;16.90;1.00
34572;DHT22;20808;48.974;8.452;2022-08-30T05:34:57;17.00;99.90
34572;DHT22;20808;48.974;8.452;2022-08-30T05:37:25;17.20;1.00
34572;DHT22;20808;48.974;8.452;2022-08-30T05:39:52;17.40;1.00
34572;DHT22;20808;48.974;8.452;2022-08-30T05:42:19;17.40;1.00
34572;DHT22;20808;48.974;8.452;2022-08-30T05:44:49;17.30;1.00
34572;DHT22;20808;48.974;8.452;2022-08-30T05:47:16;17.40;1.00
34572;DHT22;20808;48.974;8.452;2022-08-30T05:49:43;17.50;1.00
34572;DHT22;20808;48.974;8.452;2022-08-30T05:52:10;17.50;1.00
34572;DHT22;20808;48.974;8.452;2022-08-30T05:54:41;17.50;1.00
34572;DHT22;20808;48.974;8.452;2022-08-30T05:57:08;17.50;1.00
34572;DHT22;20808;48.974;8.452;2022-08-30T05:59:34;17.50;1.00
34572;DHT22;20808;48.974;8.452;2022-08-30T06:02:01;17.50;1.00
34572;DHT22;20808;48.974;8.452;2022-08-30T06:04:28;17.60;1.00
34572;DHT22;20808;48.974;8.452;2022-08-30T06:06:55;17.70;99.90
34572;DHT22;20808;48.974;8.452;2022-08-30T06:09:24;17.90;99.90
34572;DHT22;20808;48.974;8.452;2022-08-30T06:11:53;18.10;1.00
34572;DHT22;20808;48.974;8.452;2022-08-30T06:14:20;18.20;1.00
34572;DHT22;20808;48.974;8.452;2022-08-30T06:16:47;18.40;1.00
34572;DHT22;20808;48.974;8.452;2022-08-30T06:19:14;18.50;1.00
34572;DHT22;20808;48.974;8.452;2022-08-30T06:21:42;18.60;1.00
34572;DHT22;20808;48.974;8.452;2022-08-30T06:24:10;18.70;1.00
34572;DHT22;20808;48.974;8.452;2022-08-30T06:26:39;18.70;1.00
34572;DHT22;20808;48.974;8.452;2022-08-30T06:29:09;18.90;1.00
34572;DHT22;20808;48.974;8.452;2022-08-30T06:31:36;19.00;1.00
34572;DHT22;20808;48.974;8.452;2022-08-30T06:34:04;19.30;99.90
34572;DHT22;20808;48.974;8.452;2022-08-30T06:36:31;19.50;99.90
34572;DHT22;20808;48.974;8.452;2022-08-30T06:38:59;19.70;99.90
34572;DHT22;20808;48.974;8.452;2022-08-30T06:41:28;19.80;99.90
34572;DHT22;20808;48.974;8.452;2022-08-30T06:43:56;20.10;99.90
34572;DHT22;20808;48.974;8.452;2022-08-30T06:46:26;20.30;86.90
34572;DHT22;20808;48.974;8.452;2022-08-30T06:48:54;20.50;49.70
34572;DHT22;20808;48.974;8.452;2022-08-30T06:51:23;20.70;20.00
34572;DHT22;20808;48.974;8.452;2022-08-30T06:53:51;20.90;1.60
34572;DHT22;20808;48.974;8.452;2022-08-30T06:56:18;21.20;1.00
34572;DHT22;20808;48.974;8.452;2022-08-30T06:58:46;21.50;1.00
34572;DHT22;20808;48.974;8.452;2022-08-30T07:01:14;21.70;1.00
34572;DHT22;20808;48.974;8.452;2022-08-30T07:03:43;21.90;1.00
34572;DHT22;20808;48.974;8.452;2022-08-30T07:06:10;22.00;1.00
34572;DHT22;20808;48.974;8.452;2022-08-30T07:08:39;22.20;1.00
34572;DHT22;20808;48.974;8.452;2022-08-30T07:11:06;22.50;1.00
34572;DHT22;20808;48.974;8.452;2022-08-30T07:13:33;22.80;1.00
34572;DHT22;20808;48.974;8.452;2022-08-30T07:16:00;23.10;1.00
34572;DHT22;20808;48.974;8.452;2022-08-30T07:18:27;23.50;1.00
34572;DHT22;20808;48.974;8.452;2022-08-30T07:21:14;23.90;1.00
34572;DHT22;20808;48.974;8.452;2022-08-30T07:23:43;24.10;1.00
34572;DHT22;20808;48.974;8.452;2022-08-30T07:26:12;24.30;1.00
34572;DHT22;20808;48.974;8.452;2022-08-30T07:28:40;24.50;1.00
34572;DHT22;20808;48.974;8.452;2022-08-30T07:31:07;24.80;1.00
34572;DHT22;20808;48.974;8.452;2022-08-30T07:33:35;25.10;1.00
34572;DHT22;20808;48.974;8.452;2022-08-30T07:36:02;25.10;1.00
34572;DHT22;20808;48.974;8.452;2022-08-30T07:38:31;25.40;1.00
34572;DHT22;20808;48.974;8.452;2022-08-30T07:40:58;25.60;1.00
34572;DHT22;20808;48.974;8.452;2022-08-30T07:43:26;25.90;1.00
34572;DHT22;20808;48.974;8.452;2022-08-30T07:45:53;26.20;1.00
34572;DHT22;20808;48.974;8.452;2022-08-30T07:48:20;26.60;1.00
34572;DHT22;20808;48.974;8.452;2022-08-30T07:50:47;26.90;1.00
34572;DHT22;20808;48.974;8.452;2022-08-30T07:53:14;27.10;1.00
34572;DHT22;20808;48.974;8.452;2022-08-30T07:55:42;27.20;1.00
34572;DHT22;20808;48.974;8.452;2022-08-30T07:58:09;27.30;1.00
34572;DHT22;20808;48.974;8.452;2022-08-30T08:00:36;27.70;1.00
34572;DHT22;20808;48.974;8.452;2022-08-30T08:03:06;27.90;1.00
34572;DHT22;20808;48.974;8.452;2022-08-30T08:05:36;28.10;1.00
34572;DHT22;20808;48.974;8.452;2022-08-30T08:08:03;28.40;1.00
34572;DHT22;20808;48.974;8.452;2022-08-30T08:10:30;28.50;1.00
34572;DHT22;20808;48.974;8.452;2022-08-30T08:12:59;28.70;1.00
34572;DHT22;20808;48.974;8.452;2022-08-30T08:15:26;28.90;1.00
34572;DHT22;20808;48.974;8.452;2022-08-30T08:17:53;29.10;1.00
34572;DHT22;20808;48.974;8.452;2022-08-30T08:20:21;28.90;1.00
34572;DHT22;20808;48.974;8.452;2022-08-30T08:22:48;28.70;1.00
34572;DHT22;20808;48.974;8.452;2022-08-30T08:25:15;28.60;1.00
34572;DHT22;20808;48.974;8.452;2022-08-30T08:27:42;28.90;1.00
34572;DHT22;20808;48.974;8.452;2022-08-30T08:30:11;29.20;1.00
34572;DHT22;20808;48.974;8.452;2022-08-30T08:32:38;29.50;1.00
34572;DHT22;20808;48.974;8.452;2022-08-30T08:35:06;29.60;1.00
34572;DHT22;20808;48.974;8.452;2022-08-30T08:37:32;29.80;1.00
34572;DHT22;20808;48.974;8.452;2022-08-30T08:39:59;30.10;1.00
34572;DHT22;20808;48.974;8.452;2022-08-30T08:42:34;30.80;1.00
34572;DHT22;20808;48.974;8.452;2022-08-30T08:45:05;31.30;1.00
34572;DHT22;20808;48.974;8.452;2022-08-30T08:47:38;31.60;1.00
34572;DHT22;20808;48.974;8.452;2022-08-30T08:50:09;31.70;1.00
34572;DHT22;20808;48.974;8.452;2022-08-30T08:52:45;31.20;1.00
34572;DHT22;20808;48.974;8.452;2022-08-30T08:55:31;31.30;1.00
34572;DHT22;20808;48.974;8.452;2022-08-30T08:57:58;31.10;1.00
34572;DHT22;20808;48.974;8.452;2022-08-30T09:00:25;30.90;1.00
34572;DHT22;20808;48.974;8.452;2022-08-30T09:02:58;31.20;1.00
34572;DHT22;20808;48.974;8.452;2022-08-30T09:05:28;31.30;1.00
34572;DHT22;20808;48.974;8.452;2022-08-30T09:08:01;31.80;1.00
34572;DHT22;20808;48.974;8.452;2022-08-30T09:10:31;32.20;1.00
34572;DHT22;20808;48.974;8.452;2022-08-30T09:12:58;32.30;1.00
34572;DHT22;20808;48.974;8.452;2022-08-30T09:15:27;32.70;1.00
34572;DHT22;20808;48.974;8.452;2022-08-30T09:17:58;32.70;1.00
34572;DHT22;20808;48.974;8.452;2022-08-30T09:20:29;33.20;1.00
34572;DHT22;20808;48.974;8.452;2022-08-30T09:22:59;33.40;1.00
34572;DHT22;20808;48.974;8.452;2022-08-30T09:25:36;33.50;1.00
34572;DHT22;20808;48.974;8.452;2022-08-30T09:28:12;33.70;1.00
34572;DHT22;20808;48.974;8.452;2022-08-30T09:31:00;34.00;1.00
34572;DHT22;20808;48.974;8.452;2022-08-30T09:33:28;34.30;1.00
34572;DHT22;20808;48.974;8.452;2022-08-30T09:35:56;34.60;1.00
34572;DHT22;20808;48.974;8.452;2022-08-30T09:38:27;34.20;1.00
34572;DHT22;20808;48.974;8.452;2022-08-30T09:40:59;34.00;1.00
34572;DHT22;20808;48.974;8.452;2022-08-30T09:43:29;34.20;1.00
34572;DHT22;20808;48.974;8.452;2022-08-30T09:46:08;34.50;1.00
34572;DHT22;20808;48.974;8.452;2022-08-30T09:48:39;34.90;1.00
34572;DHT22;20808;48.974;8.452;2022-08-30T09:54:15;35.50;1.00
34572;DHT22;20808;48.974;8.452;2022-08-30T09:56:54;35.40;1.00
34572;DHT22;20808;48.974;8.452;2022-08-30T09:59:38;35.00;1.00
34572;DHT22;20808;48.974;8.452;2022-08-30T10:05:12;34.60;1.00
34572;DHT22;20808;48.974;8.452;2022-08-30T10:07:47;34.50;1.00
34572;DHT22;20808;48.974;8.452;2022-08-30T10:10:20;34.70;1.00
34572;DHT22;20808;48.974;8.452;2022-08-30T10:12:57;34.50;1.00
34572;DHT22;20808;48.974;8.452;2022-08-30T10:15:31;34.80;1.00
34572;DHT22;20808;48.974;8.452;2022-08-30T10:18:04;35.40;1.00
34572;DHT22;20808;48.974;8.452;2022-08-30T10:20:40;35.60;1.00
34572;DHT22;20808;48.974;8.452;2022-08-30T10:23:13;35.70;1.00
34572;DHT22;20808;48.974;8.452;2022-08-30T10:25:44;35.90;1.00
34572;DHT22;20808;48.974;8.452;2022-08-30T10:28:17;35.10;1.00
34572;DHT22;20808;48.974;8.452;2022-08-30T10:30:51;34.90;1.00
34572;DHT22;20808;48.974;8.452;2022-08-30T10:33:23;35.50;1.00
34572;DHT22;20808;48.974;8.452;2022-08-30T10:35:54;36.20;1.00
34572;DHT22;20808;48.974;8.452;2022-08-30T10:38:25;36.80;1.00
34572;DHT22;20808;48.974;8.452;2022-08-30T10:40:58;36.80;1.00
34572;DHT22;20808;48.974;8.452;2022-08-30T10:43:54;37.10;1.00
34572;DHT22;20808;48.974;8.452;2022-08-30T10:46:28;37.10;1.00
34572;DHT22;20808;48.974;8.452;2022-08-30T10:48:58;37.20;1.00
34572;DHT22;20808;48.974;8.452;2022-08-30T10:51:32;37.10;1.00
34572;DHT22;20808;48.974;8.452;2022-08-30T10:54:06;37.20;1.00
34572;DHT22;20808;48.974;8.452;2022-08-30T10:56:34;37.30;1.00
34572;DHT22;20808;48.974;8.452;2022-08-30T10:59:04;36.90;1.00
34572;DHT22;20808;48.974;8.452;2022-08-30T11:01:51;37.30;1.00
34572;DHT22;20808;48.974;8.452;2022-08-30T11:04:47;37.50;1.00
34572;DHT22;20808;48.974;8.452;2022-08-30T11:07:27;37.10;1.00
34572;DHT22;20808;48.974;8.452;2022-08-30T11:10:13;36.80;1.00
34572;DHT22;20808;48.974;8.452;2022-08-30T11:12:52;36.30;1.00
34572;DHT22;20808;48.974;8.452;2022-08-30T11:15:22;36.50;1.00
34572;DHT22;20808;48.974;8.452;2022-08-30T11:17:55;36.70;1.00
34572;DHT22;20808;48.974;8.452;2022-08-30T11:20:34;36.90;1.00
34572;DHT22;20808;48.974;8.452;2022-08-30T11:23:28;37.00;1.00
34572;DHT22;20808;48.974;8.452;2022-08-30T11:25:57;36.80;1.00
34572;DHT22;20808;48.974;8.452;2022-08-30T11:29:01;37.30;1.00
34572;DHT22;20808;48.974;8.452;2022-08-30T11:31:34;36.80;1.00
34572;DHT22;20808;48.974;8.452;2022-08-30T11:34:01;37.20;1.00
34572;DHT22;20808;48.974;8.452;2022-08-30T11:39:53;36.70;1.00
34572;DHT22;20808;48.974;8.452;2022-08-30T11:42:29;36.80;1.00
34572;DHT22;20808;48.974;8.452;2022-08-30T11:48:47;36.80;1.00
34572;DHT22;20808;48.974;8.452;2022-08-30T11:51:38;37.20;1.00
34572;DHT22;20808;48.974;8.452;2022-08-30T11:54:15;36.70;1.00
34572;DHT22;20808;48.974;8.452;2022-08-30T11:56:55;36.20;1.00
34572;DHT22;20808;48.974;8.452;2022-08-30T11:59:31;35.90;1.00
34572;DHT22;20808;48.974;8.452;2022-08-30T12:02:00;35.40;1.00
34572;DHT22;20808;48.974;8.452;2022-08-30T12:04:43;35.20;1.00
34572;DHT22;20808;48.974;8.452;2022-08-30T12:07:11;34.90;1.00
34572;DHT22;20808;48.974;8.452;2022-08-30T12:09:59;34.70;1.00
34572;DHT22;20808;48.974;8.452;2022-08-30T12:12:46;35.50;1.00
34572;DHT22;20808;48.974;8.452;2022-08-30T12:18:08;37.70;1.00
34572;DHT22;20808;48.974;8.452;2022-08-30T12:20:54;38.20;1.00
34572;DHT22;20808;48.974;8.452;2022-08-30T12:23:30;39.00;1.00
34572;DHT22;20808;48.974;8.452;2022-08-30T12:26:12;39.20;1.00
34572;DHT22;20808;48.974;8.452;2022-08-30T12:28:40;38.80;1.00
34572;DHT22;20808;48.974;8.452;2022-08-30T12:31:10;39.00;1.00
34572;DHT22;20808;48.974;8.452;2022-08-30T12:33:42;39.60;1.00
34572;DHT22;20808;48.974;8.452;2022-08-30T12:36:15;39.00;1.00
34572;DHT22;20808;48.974;8.452;2022-08-30T12:38:42;39.50;1.00
34572;DHT22;20808;48.974;8.452;2022-08-30T12:41:18;39.30;1.00
34572;DHT22;20808;48.974;8.452;2022-08-30T12:43:48;38.80;1.00
34572;DHT22;20808;48.974;8.452;2022-08-30T12:46:18;38.30;1.00
34572;DHT22;20808;48.974;8.452;2022-08-30T12:48:46;38.80;1.00
34572;DHT22;20808;48.974;8.452;2022-08-30T12:51:37;38.60;1.00
34572;DHT22;20808;48.974;8.452;2022-08-30T12:54:07;37.90;1.00
34572;DHT22;20808;48.974;8.452;2022-08-30T12:57:01;38.50;1.00
34572;DHT22;20808;48.974;8.452;2022-08-30T12:59:53;38.90;1.00
34572;DHT22;20808;48.974;8.452;2022-08-30T13:02:22;38.80;1.00
34572;DHT22;20808;48.974;8.452;2022-08-30T13:04:51;39.30;1.00
34572;DHT22;20808;48.974;8.452;2022-08-30T13:07:28;38.90;1.00
34572;DHT22;20808;48.974;8.452;2022-08-30T13:10:08;39.00;1.00
34572;DHT22;20808;48.974;8.452;2022-08-30T13:12:57;39.10;1.00
34572;DHT22;20808;48.974;8.452;2022-08-30T13:15:28;39.50;1.00
34572;DHT22;20808;48.974;8.452;2022-08-30T13:18:16;40.00;1.00
34572;DHT22;20808;48.974;8.452;2022-08-30T13:20:44;40.50;1.00
34572;DHT22;20808;48.974;8.452;2022-08-30T13:23:20;40.30;1.00
34572;DHT22;20808;48.974;8.452;2022-08-30T13:25:48;40.10;1.00
34572;DHT22;20808;48.974;8.452;2022-08-30T13:28:16;40.50;1.00
34572;DHT22;20808;48.974;8.452;2022-08-30T13:30:45;41.10;1.00
34572;DHT22;20808;48.974;8.452;2022-08-30T13:33:12;41.30;1.00
34572;DHT22;20808;48.974;8.452;2022-08-30T13:35:40;40.90;1.00
34572;DHT22;20808;48.974;8.452;2022-08-30T13:38:08;39.10;1.00
34572;DHT22;20808;48.974;8.452;2022-08-30T13:40:35;39.40;1.00
34572;DHT22;20808;48.974;8.452;2022-08-30T13:43:01;39.70;1.00
34572;DHT22;20808;48.974;8.452;2022-08-30T13:45:30;40.00;1.00
34572;DHT22;20808;48.974;8.452;2022-08-30T13:47:56;40.50;1.00
34572;DHT22;20808;48.974;8.452;2022-08-30T13:50:23;40.20;1.00
34572;DHT22;20808;48.974;8.452;2022-08-30T13:52:50;39.70;1.00
34572;DHT22;20808;48.974;8.452;2022-08-30T13:55:17;40.00;1.00
34572;DHT22;20808;48.974;8.452;2022-08-30T13:57:44;39.40;1.00
34572;DHT22;20808;48.974;8.452;2022-08-30T14:00:14;39.60;1.00
34572;DHT22;20808;48.974;8.452;2022-08-30T14:02:44;39.70;1.00
34572;DHT22;20808;48.974;8.452;2022-08-30T14:05:12;39.40;1.00
34572;DHT22;20808;48.974;8.452;2022-08-30T14:07:38;39.50;1.00
34572;DHT22;20808;48.974;8.452;2022-08-30T14:10:06;39.40;1.00
34572;DHT22;20808;48.974;8.452;2022-08-30T14:12:33;38.80;1.00
34572;DHT22;20808;48.974;8.452;2022-08-30T14:15:00;37.90;1.00
34572;DHT22;20808;48.974;8.452;2022-08-30T14:17:27;37.50;1.00
34572;DHT22;20808;48.974;8.452;2022-08-30T14:19:58;37.00;1.00
34572;DHT22;20808;48.974;8.452;2022-08-30T14:22:25;37.00;1.00
34572;DHT22;20808;48.974;8.452;2022-08-30T14:24:52;37.60;1.00
34572;DHT22;20808;48.974;8.452;2022-08-30T14:27:19;37.40;1.00
34572;DHT22;20808;48.974;8.452;2022-08-30T14:29:47;37.00;1.00
34572;DHT22;20808;48.974;8.452;2022-08-30T14:32:14;37.40;1.00
34572;DHT22;20808;48.974;8.452;2022-08-30T14:34:41;37.50;1.00
34572;DHT22;20808;48.974;8.452;2022-08-30T14:37:09;37.70;1.00
34572;DHT22;20808;48.974;8.452;2022-08-30T14:39:36;37.40;1.00
34572;DHT22;20808;48.974;8.452;2022-08-30T14:42:04;37.40;1.00
34572;DHT22;20808;48.974;8.452;2022-08-30T14:44:32;37.10;1.00
34572;DHT22;20808;48.974;8.452;2022-08-30T14:46:59;36.70;1.00
34572;DHT22;20808;48.974;8.452;2022-08-30T14:49:26;35.80;1.00
34572;DHT22;20808;48.974;8.452;2022-08-30T14:51:53;35.00;1.00
34572;DHT22;20808;48.974;8.452;2022-08-30T14:54:23;35.30;1.00
34572;DHT22;20808;48.974;8.452;2022-08-30T14:56:51;35.50;1.00
34572;DHT22;20808;48.974;8.452;2022-08-30T14:59:18;35.40;1.00
34572;DHT22;20808;48.974;8.452;2022-08-30T15:01:45;35.10;1.00
34572;DHT22;20808;48.974;8.452;2022-08-30T15:04:13;34.70;1.00
34572;DHT22;20808;48.974;8.452;2022-08-30T15:06:42;34.60;1.00
34572;DHT22;20808;48.974;8.452;2022-08-30T15:09:12;34.60;1.00
34572;DHT22;20808;48.974;8.452;2022-08-30T15:11:41;34.50;1.00
34572;DHT22;20808;48.974;8.452;2022-08-30T15:14:09;34.30;1.00
34572;DHT22;20808;48.974;8.452;2022-08-30T15:16:37;34.50;1.00
34572;DHT22;20808;48.974;8.452;2022-08-30T15:19:07;34.30;1.00
34572;DHT22;20808;48.974;8.452;2022-08-30T15:21:35;33.80;1.00
34572;DHT22;20808;48.974;8.452;2022-08-30T15:24:04;33.20;1.00
34572;DHT22;20808;48.974;8.452;2022-08-30T15:26:32;32.80;1.00
34572;DHT22;20808;48.974;8.452;2022-08-30T15:29:02;32.70;1.00
34572;DHT22;20808;48.974;8.452;2022-08-30T15:31:29;32.60;1.00
34572;DHT22;20808;48.974;8.452;2022-08-30T15:33:57;32.50;1.00
34572;DHT22;20808;48.974;8.452;2022-08-30T15:36:24;32.50;1.00
34572;DHT22;20808;48.974;8.452;2022-08-30T15:38:51;32.60;1.00
34572;DHT22;20808;48.974;8.452;2022-08-30T15:41:20;32.60;1.00
34572;DHT22;20808;48.974;8.452;2022-08-30T15:43:47;32.80;1.00
34572;DHT22;20808;48.974;8.452;2022-08-30T15:46:20;32.80;1.00
34572;DHT22;20808;48.974;8.452;2022-08-30T15:48:48;32.90;1.00
34572;DHT22;20808;48.974;8.452;2022-08-30T15:51:17;32.80;1.00
34572;DHT22;20808;48.974;8.452;2022-08-30T15:53:44;32.70;1.00
34572;DHT22;20808;48.974;8.452;2022-08-30T15:56:12;32.60;1.00
34572;DHT22;20808;48.974;8.452;2022-08-30T15:58:39;32.20;1.00
34572;DHT22;20808;48.974;8.452;2022-08-30T16:01:07;31.70;1.00
34572;DHT22;20808;48.974;8.452;2022-08-30T16:03:36;31.40;1.00
34572;DHT22;20808;48.974;8.452;2022-08-30T16:06:09;31.00;1.00
34572;DHT22;20808;48.974;8.452;2022-08-30T16:08:36;30.90;1.00
34572;DHT22;20808;48.974;8.452;2022-08-30T16:11:04;30.70;1.00
34572;DHT22;20808;48.974;8.452;2022-08-30T16:13:31;30.60;1.00
34572;DHT22;20808;48.974;8.452;2022-08-30T16:15:59;30.50;1.00